createdAt,value
2022-09-25T00:00:22.506Z,22.9
2022-09-25T00:06:00.467Z,22.9
2022-09-25T00:11:25.477Z,22.9
2022-09-25T00:17:03.406Z,22.9
2022-09-25T00:22:40.789Z,22.8
2022-09-25T00:28:18.344Z,22.8
2022-09-25T00:33:55.659Z,22.8
2022-09-25T00:39:18.210Z,22.8
2022-09-25T00:44:24.606Z,22.8
2022-09-25T00:50:01.564Z,22.8
2022-09-25T00:55:39.441Z,22.8
2022-09-25T01:01:01.713Z,22.8
2022-09-25T01:06:39.808Z,22.7
2022-09-25T01:12:17.480Z,22.8
2022-09-25T01:17:39.341Z,22.7
2022-09-25T01:23:17.767Z,22.7
2022-09-25T01:28:55.727Z,22.6
2022-09-25T01:34:33.235Z,22.6
2022-09-25T01:40:10.386Z,22.6
2022-09-25T01:45:48.207Z,22.6
2022-09-25T01:51:08.704Z,22.6
2022-09-25T01:56:30.236Z,22.6
2022-09-25T02:01:52.841Z,22.6
2022-09-25T02:07:14.334Z,22.6
2022-09-25T02:12:36.021Z,22.5
2022-09-25T02:17:57.921Z,22.6
2022-09-25T02:23:04.072Z,22.6
2022-09-25T02:28:26.149Z,22.5
2022-09-25T02:33:48.857Z,22.5
2022-09-25T02:39:30.162Z,22.5
2022-09-25T02:44:36.361Z,22.5
2022-09-25T02:55:34.525Z,22.4
2022-09-25T03:01:18.096Z,22.4
2022-09-25T03:06:40.651Z,22.4
2022-09-25T03:12:02.671Z,22.4
2022-09-25T03:17:24.957Z,22.4
2022-09-25T03:22:47.346Z,22.4
2022-09-25T03:27:53.763Z,22.4
2022-09-25T03:33:00.352Z,22.4
2022-09-25T03:38:37.408Z,22.4
2022-09-25T03:43:43.003Z,22.3
2022-09-25T03:49:04.272Z,22.3
2022-09-25T03:54:10.386Z,22.3
2022-09-25T03:59:16.916Z,22.3
2022-09-25T04:10:01.656Z,22.3
2022-09-25T04:14:52.522Z,22.2
2022-09-25T04:20:14.344Z,22.2
2022-09-25T04:25:05.763Z,22.1
2022-09-25T04:30:12.367Z,22.1
2022-09-25T04:35:34.742Z,22.1
2022-09-25T04:41:12.693Z,22
2022-09-25T04:46:38.757Z,22
2022-09-25T04:52:01.508Z,21.9
2022-09-25T04:57:45.958Z,21.9
2022-09-25T05:03:20.057Z,21.8
2022-09-25T05:08:43.491Z,21.8
2022-09-25T05:14:06.383Z,21.8
2022-09-25T05:19:29.065Z,21.6
2022-09-25T05:24:54.112Z,21.6
2022-09-25T05:30:19.704Z,21.6
2022-09-25T05:35:26.313Z,21.5
2022-09-25T05:41:04.126Z,21.5
2022-09-25T05:46:42.121Z,21.6
2022-09-25T05:52:04.534Z,21.6
2022-09-25T05:57:27.295Z,21.6
2022-09-25T06:02:49.482Z,21.6
2022-09-25T06:19:24.399Z,21.6
2022-09-25T06:25:04.019Z,25
2022-09-25T06:30:47.427Z,43.4
2022-09-25T06:36:27.474Z,41.5
2022-09-25T06:42:07.350Z,37.4
2022-09-25T06:47:51.239Z,36.8
2022-09-25T06:53:29.437Z,47.6
2022-09-25T06:59:06.434Z,42
2022-09-25T07:04:34.867Z,44.8
2022-09-25T07:10:13.355Z,46
2022-09-25T07:15:50.816Z,44.2
2022-09-25T07:21:28.772Z,45.3
2022-09-25T07:27:07.629Z,46.1
2022-09-25T07:32:45.573Z,47.6
2022-09-25T07:38:22.902Z,48.6
2022-09-25T07:44:27.682Z,49.3
2022-09-25T07:50:15.345Z,49.9
2022-09-25T07:55:37.672Z,50.8
2022-09-25T08:01:18.124Z,51.7
2022-09-25T08:07:04.811Z,52.1
2022-09-25T08:12:43.560Z,52.8
2022-09-25T08:18:12.558Z,53.8
2022-09-25T08:23:52.481Z,54.6
2022-09-25T08:29:32.587Z,55
2022-09-25T08:35:47.120Z,55.7
2022-09-25T08:41:14.096Z,56.3
2022-09-25T08:47:19.607Z,57
2022-09-25T08:52:44.591Z,57.6
2022-09-25T08:58:28.102Z,58
2022-09-25T09:04:08.123Z,58.8
2022-09-25T09:10:01.037Z,59.4
2022-09-25T09:15:14.820Z,59.6
2022-09-25T09:20:22.792Z,59.9
2022-09-25T09:25:51.979Z,60.3
2022-09-25T09:31:16.136Z,59.3
2022-09-25T09:36:56.487Z,59.4
2022-09-25T09:42:37.106Z,54.8
2022-09-25T09:48:01.024Z,50.8
2022-09-25T09:53:44.654Z,63.6
2022-09-25T09:59:24.245Z,62.2
2022-09-25T10:05:38.328Z,62.3
2022-09-25T10:11:17.670Z,62.7
2022-09-25T10:16:58.328Z,63.4
2022-09-25T10:22:37.486Z,64.3
2022-09-25T20:05:41.953Z,23.3
2022-09-25T20:11:25.699Z,23.2
2022-09-25T20:17:09.833Z,23.3
2022-09-25T20:22:34.226Z,23.2
2022-09-25T20:28:15.649Z,23.1
2022-09-25T20:33:56.276Z,23.1
2022-09-25T20:39:21.670Z,23
2022-09-25T20:45:02.684Z,22.9
2022-09-25T20:50:27.472Z,22.9
2022-09-25T20:56:07.533Z,22.9
2022-09-25T21:01:49.297Z,22.9
2022-09-25T21:07:33.544Z,22.8
2022-09-25T21:12:57.755Z,22.8
2022-09-25T21:18:38.694Z,22.8
2022-09-25T21:24:18.296Z,22.7
2022-09-25T21:29:57.384Z,22.7
2022-09-25T21:35:24.927Z,22.6
2022-09-25T21:41:06.687Z,22.6
2022-09-25T21:46:30.834Z,22.6
2022-09-25T21:52:10.542Z,22.6
2022-09-25T21:57:49.171Z,22.6
2022-09-25T22:03:28.246Z,22.6
2022-09-25T22:09:07.632Z,22.5
2022-09-25T22:14:49.277Z,22.5
2022-09-25T22:20:12.259Z,22.4
2022-09-25T22:25:35.301Z,22.4
2022-09-25T22:31:13.616Z,22.4
2022-09-25T22:36:36.339Z,22.4
2022-09-25T22:47:42.786Z,22.3
2022-09-25T22:53:19.412Z,22.3
2022-09-25T22:58:57.320Z,22.3
2022-09-25T23:04:35.112Z,22.2
2022-09-25T23:10:12.832Z,22.2
2022-09-25T23:16:13.245Z,22.2
2022-09-25T23:21:50.174Z,22.2
2022-09-25T23:27:27.266Z,22.1
2022-09-25T23:32:35.216Z,22.1
2022-09-25T23:38:11.058Z,22.1
2022-09-25T23:43:38.375Z,22.1
2022-09-25T23:49:01.667Z,22.1
2022-09-25T23:54:39.368Z,22
